Time;durP1;ratioP1;P1;durP2;ratioP2;P2;SDS_P1;SDS_P2;PMS_P1;PMS_P2;Temp;Humidity;BMP_temperature;BMP_pressure;BME280_temperature;BME280_humidity;BME280_pressure;Samples;Min_cycle;Max_cycle;Signal;HPM_P1;HPM_P2
2021/11/19 00:04:32;;;;;;;32.67;17.10;;;;;10.20;102506.00;;;;10316383;28;20215;-78
2021/11/19 00:09:35;;;;;;;30.90;18.00;;;;;10.20;102498.00;;;;10331365;28;20313;-78
2021/11/19 00:14:38;;;;;;;31.77;18.53;;;;;10.20;102493.00;;;;10316896;28;20871;-78
2021/11/19 00:19:43;;;;;;;37.00;20.83;;;;;10.20;102494.00;;;;10315072;28;20711;-78
2021/11/19 00:24:45;;;;;;;35.10;19.20;;;;;10.20;102483.00;;;;10316059;28;20298;-78
2021/11/19 00:29:48;;;;;;;37.63;18.93;;;;;10.20;102487.00;;;;10315784;28;20263;-78
2021/11/19 00:34:50;;;;;;;32.57;18.57;;;;;10.20;102492.00;;;;10316521;28;20686;-78
2021/11/19 00:39:52;;;;;;;38.10;20.57;;;;;10.20;102495.00;;;;10299884;28;20204;-78
2021/11/19 00:44:54;;;;;;;33.80;20.67;;;;;10.20;102496.00;;;;10331547;28;20220;-78
2021/11/19 00:49:59;;;;;;;29.97;19.17;;;;;10.20;102499.00;;;;10337238;28;20204;-78
2021/11/19 00:55:05;;;;;;;33.20;19.33;;;;;10.20;102494.00;;;;10316439;28;20291;-78
2021/11/19 01:00:13;;;;;;;33.53;19.37;;;;;10.20;102490.00;;;;10316479;28;20295;-78
2021/11/19 01:05:21;;;;;;;37.33;20.53;;;;;10.10;102491.00;;;;10295473;28;20244;-78
2021/11/19 01:10:28;;;;;;;43.20;20.20;;;;;10.20;102488.00;;;;10303057;28;20232;-78
2021/11/19 01:15:35;;;;;;;34.90;21.37;;;;;10.20;102490.00;;;;10332740;28;20208;-78
2021/11/19 01:20:46;;;;;;;35.27;21.93;;;;;10.20;102487.00;;;;10306873;28;20320;-78
2021/11/19 01:25:53;;;;;;;42.97;22.13;;;;;10.20;102493.00;;;;10314888;28;20361;-78
2021/11/19 01:31:06;;;;;;;44.83;22.27;;;;;10.20;102484.00;;;;10306297;28;20565;-78
2021/11/19 01:36:08;;;;;;;35.13;20.70;;;;;10.20;102480.00;;;;10323743;28;20291;-78
2021/11/19 01:41:35;;;;;;;46.57;20.73;;;;;10.20;102484.00;;;;10323897;28;20684;-78
2021/11/19 01:46:41;;;;;;;38.20;22.10;;;;;10.20;102480.00;;;;10307289;28;20212;-78
2021/11/19 01:51:55;;;;;;;42.57;22.53;;;;;10.20;102479.00;;;;10323581;28;20197;-78
2021/11/19 01:57:21;;;;;;;36.33;22.13;;;;;10.20;102479.00;;;;10322548;28;20243;-78
2021/11/19 02:02:37;;;;;;;35.33;21.73;;;;;10.20;102483.00;;;;10322899;28;20220;-78
2021/11/19 02:07:45;;;;;;;41.40;24.67;;;;;10.20;102483.00;;;;10302830;28;20825;-78
2021/11/19 02:13:25;;;;;;;42.87;23.03;;;;;10.20;102482.00;;;;10307797;28;20255;-78
2021/11/19 02:18:31;;;;;;;42.53;23.77;;;;;10.20;102482.00;;;;10318414;28;20204;-77
2021/11/19 02:23:51;;;;;;;42.90;24.10;;;;;10.20;102484.00;;;;10282067;28;20221;-78
2021/11/19 02:28:54;;;;;;;40.63;23.97;;;;;10.20;102494.00;;;;10311402;28;20204;-78
2021/11/19 02:34:00;;;;;;;41.03;24.47;;;;;10.20;102488.00;;;;10321052;28;20228;-78
2021/11/19 02:39:10;;;;;;;42.80;24.17;;;;;10.20;102487.00;;;;10320361;28;20204;-77
2021/11/19 02:44:16;;;;;;;38.13;25.03;;;;;10.20;102492.00;;;;10320265;28;20216;-78
2021/11/19 02:49:20;;;;;;;46.27;26.20;;;;;10.20;102495.00;;;;10337258;28;20215;-78
2021/11/19 02:54:26;;;;;;;36.27;23.80;;;;;10.20;102490.00;;;;10320890;28;20228;-78
2021/11/19 02:59:30;;;;;;;47.93;25.50;;;;;10.20;102483.00;;;;10281808;28;20220;-78
2021/11/19 03:04:38;;;;;;;41.03;24.73;;;;;10.20;102475.00;;;;10280271;28;20213;-78
2021/11/19 03:09:45;;;;;;;48.47;24.87;;;;;10.20;102475.00;;;;10329555;28;20216;-78
2021/11/19 03:14:50;;;;;;;44.60;26.07;;;;;10.20;102465.00;;;;10335901;28;20668;-77
2021/11/19 03:19:52;;;;;;;38.57;25.30;;;;;10.30;102461.00;;;;10320104;28;20259;-78
2021/11/19 03:24:54;;;;;;;40.97;24.20;;;;;10.30;102462.00;;;;10263276;28;20217;-78
2021/11/19 03:29:58;;;;;;;42.80;27.33;;;;;10.30;102482.00;;;;10307826;28;20228;-78
2021/11/19 03:35:02;;;;;;;37.23;24.63;;;;;10.40;102466.00;;;;10319126;28;20227;-78
2021/11/19 03:40:05;;;;;;;36.70;23.70;;;;;10.40;102468.00;;;;10298553;28;20635;-78
2021/11/19 03:45:11;;;;;;;37.63;24.17;;;;;10.40;102468.00;;;;10350990;28;20223;-78
2021/11/19 03:50:21;;;;;;;37.57;25.23;;;;;10.40;102469.00;;;;10318344;28;20204;-78
2021/11/19 03:55:29;;;;;;;38.80;24.73;;;;;10.40;102469.00;;;;10329422;28;20192;-78
2021/11/19 04:00:39;;;;;;;35.87;24.87;;;;;10.40;102471.00;;;;10318784;28;20200;-78
2021/11/19 04:05:43;;;;;;;38.70;24.93;;;;;10.50;102450.00;;;;10327392;28;20304;-78
2021/11/19 04:10:47;;;;;;;40.73;25.30;;;;;10.50;102459.00;;;;10318335;28;20575;-78
2021/11/19 04:15:53;;;;;;;38.90;25.07;;;;;10.50;102456.00;;;;10315869;28;20200;-78
2021/11/19 04:20:56;;;;;;;36.50;24.17;;;;;10.50;102442.00;;;;10315210;28;20255;-78
2021/11/19 04:26:03;;;;;;;35.07;23.67;;;;;10.50;102437.00;;;;10296788;28;20212;-78
2021/11/19 04:31:06;;;;;;;38.47;24.37;;;;;10.60;102443.00;;;;10301814;28;21072;-78
2021/11/19 04:36:11;;;;;;;42.53;23.80;;;;;10.60;102453.00;;;;10317586;28;20192;-78
2021/11/19 04:41:14;;;;;;;34.20;23.73;;;;;10.60;102457.00;;;;10276891;28;20220;-78
2021/11/19 04:46:17;;;;;;;33.83;22.97;;;;;10.60;102451.00;;;;10300391;28;20636;-77
2021/11/19 04:51:26;;;;;;;39.63;23.67;;;;;10.60;102451.00;;;;10317489;28;20204;-79
2021/11/19 04:56:29;;;;;;;37.77;23.73;;;;;10.60;102463.00;;;;10300909;28;20291;-78
2021/11/19 05:01:34;;;;;;;35.30;20.80;;;;;10.60;102462.00;;;;10314682;28;20235;-78
2021/11/19 05:06:47;;;;;;;34.97;22.53;;;;;10.60;102463.00;;;;10288938;28;20203;-78
2021/11/19 05:11:59;;;;;;;34.67;22.57;;;;;10.60;102476.00;;;;10332932;28;20204;-78
2021/11/19 05:17:07;;;;;;;34.30;22.00;;;;;10.70;102467.00;;;;10298063;28;20197;-78
2021/11/19 05:22:10;;;;;;;33.27;20.83;;;;;10.60;102473.00;;;;10316193;28;20212;-78
2021/11/19 05:27:12;;;;;;;34.97;21.93;;;;;10.60;102472.00;;;;10312393;28;20259;-78
2021/11/19 05:32:15;;;;;;;36.07;21.13;;;;;10.60;102474.00;;;;10316268;28;20318;-77
2021/11/19 05:37:17;;;;;;;36.73;21.73;;;;;10.60;102469.00;;;;10313018;28;20248;-78
2021/11/19 05:42:19;;;;;;;30.40;21.03;;;;;10.60;102472.00;;;;10316198;28;20308;-79
2021/11/19 05:47:21;;;;;;;31.47;21.63;;;;;10.60;102463.00;;;;10315992;28;20197;-78
2021/11/19 05:52:32;;;;;;;30.93;21.13;;;;;10.60;102462.00;;;;10335485;28;20224;-78
2021/11/19 05:57:34;;;;;;;37.13;21.67;;;;;10.70;102466.00;;;;10339862;28;20200;-77
2021/11/19 06:02:36;;;;;;;32.33;20.20;;;;;10.70;102466.00;;;;10317128;28;20232;-77
2021/11/19 06:07:58;;;;;;;36.33;23.23;;;;;10.70;102469.00;;;;10305521;28;20219;-78
2021/11/19 06:13:05;;;;;;;32.83;21.30;;;;;10.70;102470.00;;;;10327646;28;20668;-78
2021/11/19 06:18:12;;;;;;;31.93;21.77;;;;;10.70;102478.00;;;;10325390;28;20534;-77
2021/11/19 06:23:22;;;;;;;35.40;23.57;;;;;10.70;102487.00;;;;10305040;28;20251;-78
2021/11/19 06:28:32;;;;;;;36.53;23.23;;;;;10.70;102488.00;;;;10306574;28;20204;-77
2021/11/19 06:33:35;;;;;;;36.17;23.10;;;;;10.70;102492.00;;;;10278180;28;20229;-77
2021/11/19 06:38:38;;;;;;;40.87;24.73;;;;;10.70;102500.00;;;;10293426;28;20284;-78
2021/11/19 06:43:44;;;;;;;37.83;24.40;;;;;10.60;102500.00;;;;10277349;28;20213;-78
2021/11/19 06:49:12;;;;;;;40.97;24.20;;;;;10.60;102513.00;;;;10276885;28;20212;-77
2021/11/19 06:54:40;;;;;;;41.70;25.80;;;;;10.60;102521.00;;;;10268157;28;20217;-78
2021/11/19 06:59:52;;;;;;;40.27;24.93;;;;;10.60;102525.00;;;;10273280;28;20272;-78
2021/11/19 07:04:56;;;;;;;41.63;26.10;;;;;10.60;102538.00;;;;10272881;28;20229;-78
2021/11/19 07:10:02;;;;;;;43.43;25.60;;;;;10.60;102538.00;;;;10277866;28;20215;-78
2021/11/19 07:15:07;;;;;;;40.20;24.83;;;;;10.50;102542.00;;;;10284729;28;20197;-78
2021/11/19 07:20:11;;;;;;;41.73;25.07;;;;;10.50;102549.00;;;;10274992;28;20213;-78
2021/11/19 07:25:17;;;;;;;39.40;25.93;;;;;10.50;102552.00;;;;10296616;28;20209;-78
2021/11/19 07:30:21;;;;;;;43.27;26.73;;;;;10.50;102555.00;;;;10259859;28;20236;-78
2021/11/19 07:35:48;;;;;;;42.97;27.37;;;;;10.50;102545.00;;;;10319079;28;20690;-78
2021/11/19 07:41:02;;;;;;;42.47;26.83;;;;;10.60;102545.00;;;;10317829;28;20205;-78
2021/11/19 07:46:26;;;;;;;45.60;26.57;;;;;10.60;102554.00;;;;10325786;28;20220;-78
2021/11/19 07:51:35;;;;;;;46.43;27.20;;;;;10.70;102563.00;;;;10317753;28;20204;-78
2021/11/19 07:56:38;;;;;;;48.73;27.47;;;;;10.70;102573.00;;;;10298900;28;20197;-78
2021/11/19 08:01:42;;;;;;;52.37;30.83;;;;;10.80;102572.00;;;;10293190;28;20283;-77
2021/11/19 08:06:45;;;;;;;48.57;29.00;;;;;10.80;102563.00;;;;10313251;28;20231;-77
2021/11/19 08:12:06;;;;;;;50.83;28.53;;;;;10.90;102561.00;;;;10314305;28;20204;-77
2021/11/19 08:17:25;;;;;;;50.23;31.23;;;;;11.00;102565.00;;;;10335394;28;20291;-77
2021/11/19 08:22:33;;;;;;;50.20;29.13;;;;;11.10;102565.00;;;;10279506;28;20216;-77
2021/11/19 08:27:45;;;;;;;48.70;28.80;;;;;11.20;102562.00;;;;10294860;28;20213;-78
2021/11/19 08:32:48;;;;;;;52.67;30.03;;;;;11.40;102555.00;;;;10296337;28;20580;-77
2021/11/19 08:37:51;;;;;;;47.67;28.77;;;;;11.50;102555.00;;;;10271322;28;20212;-77
2021/11/19 08:42:54;;;;;;;51.80;29.30;;;;;11.50;102557.00;;;;10322801;28;20679;-77
2021/11/19 08:47:57;;;;;;;50.27;29.93;;;;;11.60;102568.00;;;;10302445;28;20216;-77
2021/11/19 08:53:01;;;;;;;47.57;29.90;;;;;11.70;102576.00;;;;10284586;28;20212;-77
2021/11/19 08:58:03;;;;;;;45.83;28.83;;;;;11.70;102568.00;;;;10286033;28;20212;-77
2021/11/19 09:03:07;;;;;;;44.17;28.63;;;;;11.80;102577.00;;;;10288539;28;20224;-77
2021/11/19 09:08:14;;;;;;;48.47;29.03;;;;;12.00;102577.00;;;;10320433;28;20561;-77
2021/11/19 09:13:16;;;;;;;50.13;29.30;;;;;12.00;102583.00;;;;10313942;28;20719;-77
2021/11/19 09:18:27;;;;;;;48.00;29.27;;;;;12.10;102596.00;;;;10296235;28;20205;-77
2021/11/19 09:23:37;;;;;;;53.07;30.13;;;;;12.10;102590.00;;;;10295756;28;20336;-77
2021/11/19 09:28:43;;;;;;;44.30;29.67;;;;;12.20;102599.00;;;;10325352;28;20208;-78
2021/11/19 09:33:48;;;;;;;44.83;28.47;;;;;12.30;102598.00;;;;10327484;28;20228;-77
2021/11/19 09:38:50;;;;;;;45.30;29.90;;;;;12.40;102616.00;;;;10321295;28;20200;-77
2021/11/19 09:43:58;;;;;;;47.43;29.13;;;;;12.50;102610.00;;;;10315136;28;20840;-77
2021/11/19 09:49:28;;;;;;;45.87;29.17;;;;;12.60;102611.00;;;;10319147;28;20263;-77
2021/11/19 09:54:42;;;;;;;46.87;29.07;;;;;12.70;102618.00;;;;10320464;28;20275;-77
2021/11/19 09:59:53;;;;;;;44.27;28.27;;;;;12.90;102605.00;;;;10304651;28;20247;-77
2021/11/19 10:05:15;;;;;;;44.47;27.80;;;;;13.00;102604.00;;;;10307228;28;20252;-78
2021/11/19 10:10:51;;;;;;;43.23;28.67;;;;;13.00;102610.00;;;;10290267;28;20204;-77
2021/11/19 10:16:02;;;;;;;38.30;26.83;;;;;13.20;102620.00;;;;10327962;28;20212;-77
2021/11/19 10:21:12;;;;;;;41.00;27.20;;;;;13.30;102616.00;;;;10286069;28;20299;-77
2021/11/19 10:26:36;;;;;;;41.27;27.03;;;;;13.40;102616.00;;;;10307451;28;20227;-77
2021/11/19 10:31:38;;;;;;;37.40;27.43;;;;;13.50;102619.00;;;;10322316;28;20228;-77
2021/11/19 10:36:46;;;;;;;36.00;24.40;;;;;13.70;102609.00;;;;10323153;28;20211;-77
2021/11/19 10:42:06;;;;;;;36.83;24.77;;;;;13.70;102603.00;;;;10289543;28;20546;-77
2021/11/19 10:47:10;;;;;;;35.77;23.30;;;;;13.70;102601.00;;;;10287416;28;20226;-77
2021/11/19 10:52:18;;;;;;;36.17;26.70;;;;;13.80;102591.00;;;;10318238;28;20216;-77
2021/11/19 10:57:57;;;;;;;33.73;23.57;;;;;13.90;102591.00;;;;10323633;28;20214;-77
2021/11/19 11:03:10;;;;;;;39.07;26.00;;;;;14.00;102591.00;;;;10305661;28;20699;-77
2021/11/19 11:08:25;;;;;;;35.70;23.23;;;;;14.00;102595.00;;;;10303111;28;20219;-77
2021/11/19 11:13:57;;;;;;;29.30;23.70;;;;;14.00;102587.00;;;;10288307;28;20208;-77
2021/11/19 11:19:22;;;;;;;32.27;21.10;;;;;14.00;102586.00;;;;10304094;28;20224;-77
2021/11/19 11:24:35;;;;;;;27.13;21.63;;;;;13.90;102584.00;;;;10307966;28;20688;-77
2021/11/19 11:30:23;;;;;;;29.23;21.10;;;;;14.00;102572.00;;;;10294555;28;20664;-77
2021/11/19 11:41:46;;;;;;;27.43;21.43;;;;;14.30;102566.00;;;;10518620;27;20995;-76
2021/11/19 11:46:50;;;;;;;30.43;22.10;;;;;14.40;102562.00;;;;10482763;28;20706;-76
2021/11/19 11:52:21;;;;;;;25.37;20.33;;;;;14.40;102566.00;;;;10487032;28;20198;-76
2021/11/19 11:57:29;;;;;;;28.07;21.20;;;;;14.30;102551.00;;;;10452114;28;20267;-76
2021/11/19 12:02:38;;;;;;;28.13;22.93;;;;;14.10;102556.00;;;;10466777;28;20198;-76
2021/11/19 12:08:21;;;;;;;32.73;22.00;;;;;14.10;102545.00;;;;10487765;28;20588;-76
2021/11/19 12:13:31;;;;;;;29.13;21.97;;;;;14.10;102543.00;;;;10461151;28;20197;-76
2021/11/19 12:18:46;;;;;;;29.37;23.00;;;;;14.20;102545.00;;;;10479866;28;20205;-77
2021/11/19 12:24:05;;;;;;;31.10;24.60;;;;;14.20;102540.00;;;;10465032;28;20264;-76
2021/11/19 12:29:16;;;;;;;30.97;23.57;;;;;14.10;102544.00;;;;10453351;28;20304;-76
2021/11/19 12:34:27;;;;;;;34.23;25.07;;;;;14.10;102532.00;;;;10477210;28;20224;-76
2021/11/19 12:39:34;;;;;;;35.30;25.00;;;;;14.00;102528.00;;;;10484848;28;20279;-76
2021/11/19 12:44:58;;;;;;;35.80;26.27;;;;;13.80;102527.00;;;;10442282;28;20268;-76
2021/11/19 12:50:15;;;;;;;33.23;26.70;;;;;13.80;102519.00;;;;10450728;28;20201;-76
2021/11/19 12:55:31;;;;;;;36.20;28.10;;;;;13.70;102515.00;;;;10414236;28;20198;-76
2021/11/19 13:00:37;;;;;;;33.93;27.73;;;;;13.60;102521.00;;;;10426943;28;20715;-76
2021/11/19 13:06:20;;;;;;;36.90;27.50;;;;;13.50;102519.00;;;;10429306;28;20190;-77
2021/11/19 13:11:34;;;;;;;39.27;27.40;;;;;13.50;102509.00;;;;10420161;28;20814;-76
2021/11/19 13:16:44;;;;;;;35.93;27.30;;;;;13.50;102506.00;;;;10405466;28;20195;-76
2021/11/19 13:21:47;;;;;;;36.23;28.10;;;;;13.30;102501.00;;;;10434341;28;20268;-77
2021/11/19 13:27:09;;;;;;;37.63;28.63;;;;;13.20;102509.00;;;;10418794;28;20201;-77
2021/11/19 13:32:29;;;;;;;34.80;26.50;;;;;13.10;102502.00;;;;10436121;28;20585;-77
2021/11/19 13:38:00;;;;;;;39.13;28.60;;;;;13.20;102497.00;;;;10402419;28;20217;-77
2021/11/19 13:43:09;;;;;;;37.37;27.47;;;;;13.20;102501.00;;;;10439421;28;20214;-77
2021/11/19 13:48:31;;;;;;;39.23;27.70;;;;;13.20;102502.00;;;;10418884;28;20194;-77
2021/11/19 13:53:50;;;;;;;40.67;27.63;;;;;13.10;102494.00;;;;10432482;28;20653;-77
2021/11/19 13:58:59;;;;;;;34.47;26.73;;;;;13.00;102488.00;;;;10420568;28;20566;-77
2021/11/19 14:04:04;;;;;;;36.90;27.73;;;;;13.00;102480.00;;;;10397034;28;20248;-77
2021/11/19 14:09:48;;;;;;;37.53;27.43;;;;;12.90;102475.00;;;;10422600;28;20186;-77
2021/11/19 14:14:56;;;;;;;37.67;28.67;;;;;12.90;102479.00;;;;10389726;28;20212;-77
2021/11/19 14:25:49;;;;;;;37.47;26.70;;;;;12.70;102477.00;;;;10410326;28;20205;-77
2021/11/19 14:30:54;;;;;;;34.13;24.70;;;;;12.70;102479.00;;;;10436806;28;20700;-77
2021/11/19 14:35:59;;;;;;;33.13;24.50;;;;;12.70;102484.00;;;;10434707;28;20255;-77
2021/11/19 14:41:22;;;;;;;33.80;25.80;;;;;12.60;102479.00;;;;10431773;28;20221;-77
2021/11/19 14:46:31;;;;;;;31.50;25.40;;;;;12.60;102485.00;;;;10436552;28;20190;-77
2021/11/19 14:51:46;;;;;;;32.93;23.07;;;;;12.50;102486.00;;;;10394405;28;20273;-77
2021/11/19 14:56:58;;;;;;;31.53;21.87;;;;;12.50;102489.00;;;;10442387;28;20178;-77
2021/11/19 15:02:08;;;;;;;27.77;21.57;;;;;12.50;102492.00;;;;10435534;28;20212;-77
2021/11/19 15:07:12;;;;;;;30.70;23.43;;;;;12.40;102488.00;;;;10409488;28;20210;-77
2021/11/19 15:12:35;;;;;;;26.57;21.33;;;;;12.40;102488.00;;;;10413282;28;20195;-78
2021/11/19 15:18:18;;;;;;;36.40;27.73;;;;;12.30;102497.00;;;;10415156;28;20663;-78
2021/11/19 15:23:26;;;;;;;35.53;27.30;;;;;12.30;102488.00;;;;10452146;28;20202;-78
2021/11/19 15:28:37;;;;;;;39.50;28.23;;;;;12.20;102488.00;;;;10447466;28;20213;-77
2021/11/19 15:34:13;;;;;;;36.70;26.30;;;;;12.20;102498.00;;;;10409428;28;20228;-77
2021/11/19 15:39:15;;;;;;;40.03;28.07;;;;;12.10;102492.00;;;;10428635;28;21566;-77
2021/11/19 15:44:23;;;;;;;35.73;26.57;;;;;12.10;102486.00;;;;10415994;28;20202;-78
2021/11/19 15:49:28;;;;;;;35.33;26.33;;;;;12.00;102484.00;;;;10402150;28;20205;-78
2021/11/19 15:54:49;;;;;;;45.80;26.30;;;;;12.00;102487.00;;;;10431313;28;20200;-77
2021/11/19 16:00:15;;;;;;;36.60;26.10;;;;;12.00;102483.00;;;;10437074;28;20260;-77
2021/11/19 16:05:53;;;;;;;35.23;25.40;;;;;12.00;102493.00;;;;10444703;28;20242;-77
2021/11/19 16:11:22;;;;;;;33.90;24.93;;;;;12.00;102496.00;;;;10422634;28;20189;-77
2021/11/19 16:16:36;;;;;;;40.33;27.37;;;;;11.90;102496.00;;;;10417818;28;20202;-77
2021/11/19 16:21:41;;;;;;;36.50;26.23;;;;;11.90;102492.00;;;;10413158;28;20228;-78
2021/11/19 16:26:58;;;;;;;37.80;25.40;;;;;11.90;102498.00;;;;10416890;28;20202;-77
2021/11/19 16:32:01;;;;;;;39.77;27.23;;;;;11.90;102497.00;;;;10407980;28;20306;-77
2021/11/19 16:37:03;;;;;;;41.87;29.43;;;;;11.90;102501.00;;;;10437576;28;20210;-77
2021/11/19 16:42:07;;;;;;;41.13;27.70;;;;;11.90;102500.00;;;;10434682;28;20214;-78
2021/11/19 16:47:10;;;;;;;41.03;27.27;;;;;11.80;102505.00;;;;10421672;28;20214;-78
2021/11/19 16:52:17;;;;;;;37.50;26.53;;;;;11.80;102514.00;;;;10404074;28;20216;-78
2021/11/19 16:57:29;;;;;;;36.10;25.97;;;;;11.80;102511.00;;;;10398891;28;20213;-77
2021/11/19 17:02:31;;;;;;;36.93;25.20;;;;;11.80;102512.00;;;;10432580;28;20560;-78
2021/11/19 17:07:33;;;;;;;33.77;24.70;;;;;11.80;102518.00;;;;10418500;28;20206;-77
2021/11/19 17:12:35;;;;;;;35.33;23.93;;;;;11.80;102518.00;;;;10392147;28;20257;-77
2021/11/19 17:17:39;;;;;;;38.10;26.43;;;;;11.80;102524.00;;;;10419247;28;20194;-77
2021/11/19 17:22:44;;;;;;;37.03;25.57;;;;;11.70;102520.00;;;;10413159;28;20198;-77
2021/11/19 17:27:47;;;;;;;39.93;27.40;;;;;11.80;102529.00;;;;10424610;28;20573;-77
2021/11/19 17:32:50;;;;;;;37.67;25.93;;;;;11.80;102533.00;;;;10421947;28;20218;-78
2021/11/19 17:37:54;;;;;;;37.80;24.93;;;;;11.80;102539.00;;;;10416351;28;20280;-77
2021/11/19 17:43:00;;;;;;;38.40;26.20;;;;;11.70;102532.00;;;;10416220;28;20202;-77
2021/11/19 17:48:06;;;;;;;37.97;25.93;;;;;11.70;102535.00;;;;10416855;28;20194;-77
2021/11/19 17:53:08;;;;;;;38.20;25.40;;;;;11.70;102530.00;;;;10450496;28;20191;-77
2021/11/19 17:58:11;;;;;;;37.60;27.80;;;;;11.70;102531.00;;;;10400051;28;20302;-77
2021/11/19 18:03:14;;;;;;;40.03;27.37;;;;;11.70;102529.00;;;;10403597;28;20654;-78
2021/11/19 18:08:19;;;;;;;34.30;25.57;;;;;11.70;102534.00;;;;10425651;28;20225;-77
2021/11/19 18:13:22;;;;;;;36.90;26.37;;;;;11.70;102534.00;;;;10427521;28;20248;-78
2021/11/19 18:18:25;;;;;;;38.17;25.77;;;;;11.70;102530.00;;;;10414832;28;20525;-77
2021/11/19 18:23:32;;;;;;;35.63;24.23;;;;;11.70;102547.00;;;;10395152;28;20206;-77
2021/11/19 18:28:35;;;;;;;40.63;25.77;;;;;11.70;102545.00;;;;10414186;28;20198;-78
2021/11/19 18:33:37;;;;;;;37.10;27.13;;;;;11.60;102547.00;;;;10410789;28;20205;-78
2021/11/19 18:38:40;;;;;;;39.13;27.20;;;;;11.70;102545.00;;;;10423543;28;20248;-77
2021/11/19 18:43:44;;;;;;;36.47;26.37;;;;;11.70;102551.00;;;;10447787;28;20203;-77
2021/11/19 18:48:47;;;;;;;38.37;26.80;;;;;11.60;102560.00;;;;10420450;28;20294;-77
2021/11/19 18:53:48;;;;;;;41.87;27.67;;;;;11.70;102561.00;;;;10427628;28;20199;-77
2021/11/19 18:58:50;;;;;;;37.07;26.43;;;;;11.70;102563.00;;;;10395248;28;20677;-77
2021/11/19 19:03:53;;;;;;;43.13;26.13;;;;;11.60;102572.00;;;;10416916;28;20201;-77
2021/11/19 19:08:58;;;;;;;38.17;24.80;;;;;11.60;102564.00;;;;10415783;28;20662;-77
2021/11/19 19:14:00;;;;;;;34.80;22.63;;;;;11.60;102564.00;;;;10416822;28;20566;-77
2021/11/19 19:19:04;;;;;;;35.03;22.10;;;;;11.60;102570.00;;;;10415513;28;20215;-77
2021/11/19 19:24:08;;;;;;;33.83;21.43;;;;;11.50;102568.00;;;;10421138;28;20275;-77
2021/11/19 19:29:12;;;;;;;31.83;22.83;;;;;11.50;102578.00;;;;10418312;28;20236;-77
2021/11/19 19:34:21;;;;;;;31.37;21.53;;;;;11.60;102577.00;;;;10402402;28;20237;-78
2021/11/19 19:39:28;;;;;;;25.47;19.47;;;;;11.50;102579.00;;;;10419756;28;20241;-77
2021/11/19 19:44:30;;;;;;;23.20;17.40;;;;;11.50;102576.00;;;;10428910;28;20190;-77
2021/11/19 19:49:33;;;;;;;24.27;18.43;;;;;11.50;102582.00;;;;10400177;28;20744;-77
2021/11/19 19:54:42;;;;;;;24.37;17.87;;;;;11.50;102581.00;;;;10431964;28;20196;-77
2021/11/19 19:59:45;;;;;;;26.00;18.77;;;;;11.40;102584.00;;;;10417272;28;20210;-77
2021/11/19 20:04:48;;;;;;;25.10;18.03;;;;;11.40;102585.00;;;;10445822;28;20253;-77
2021/11/19 20:09:51;;;;;;;27.33;19.10;;;;;11.40;102584.00;;;;10436836;28;20202;-77
2021/11/19 20:14:55;;;;;;;24.90;18.13;;;;;11.40;102587.00;;;;10399564;28;20194;-77
2021/11/19 20:20:09;;;;;;;27.70;18.97;;;;;11.40;102583.00;;;;10439753;28;20206;-77
2021/11/19 20:25:16;;;;;;;30.40;19.33;;;;;11.40;102584.00;;;;10409951;28;20676;-77
2021/11/19 20:30:31;;;;;;;25.53;18.47;;;;;11.40;102592.00;;;;10405650;28;20226;-77
2021/11/19 20:35:36;;;;;;;25.40;18.63;;;;;11.40;102591.00;;;;10447194;28;20225;-77
2021/11/19 20:40:37;;;;;;;25.17;18.50;;;;;11.40;102580.00;;;;10423445;28;20210;-77
2021/11/19 20:45:51;;;;;;;27.17;20.03;;;;;11.40;102588.00;;;;10421592;28;20205;-77
2021/11/19 20:50:57;;;;;;;21.97;17.10;;;;;11.30;102579.00;;;;10439254;28;20232;-77
2021/11/19 20:56:04;;;;;;;25.70;18.30;;;;;11.30;102581.00;;;;10441669;28;20194;-77
2021/11/19 21:01:19;;;;;;;24.83;18.57;;;;;11.30;102571.00;;;;10432254;28;20222;-77
2021/11/19 21:06:24;;;;;;;28.30;19.13;;;;;11.30;102554.00;;;;10418546;28;20209;-77
2021/11/19 21:11:28;;;;;;;26.07;19.70;;;;;11.20;102565.00;;;;10456600;28;20183;-77
2021/11/19 21:16:31;;;;;;;28.27;19.23;;;;;11.20;102555.00;;;;10422987;28;20186;-77
2021/11/19 21:21:35;;;;;;;30.37;18.63;;;;;11.20;102549.00;;;;10435405;28;20206;-78
2021/11/19 21:26:43;;;;;;;27.53;18.53;;;;;11.20;102536.00;;;;10432648;28;20194;-77
2021/11/19 21:31:51;;;;;;;26.90;18.40;;;;;11.20;102541.00;;;;10402055;28;20210;-77
2021/11/19 21:36:59;;;;;;;25.90;18.77;;;;;11.10;102534.00;;;;10440263;28;20190;-78
2021/11/19 21:42:05;;;;;;;25.13;19.53;;;;;11.10;102522.00;;;;10399263;28;20234;-77
2021/11/19 21:47:09;;;;;;;25.70;19.60;;;;;11.10;102528.00;;;;10418123;28;20197;-77
2021/11/19 21:52:25;;;;;;;24.97;19.03;;;;;11.10;102531.00;;;;10428492;28;20194;-78
2021/11/19 21:57:32;;;;;;;30.03;20.13;;;;;11.10;102532.00;;;;10428810;28;20193;-78
2021/11/19 22:02:36;;;;;;;26.57;20.23;;;;;11.10;102519.00;;;;10440141;28;20248;-77
2021/11/19 22:07:39;;;;;;;30.10;20.80;;;;;11.10;102520.00;;;;10414132;28;20194;-78
2021/11/19 22:12:41;;;;;;;28.97;20.07;;;;;11.10;102520.00;;;;10438458;28;20662;-78
2021/11/19 22:17:44;;;;;;;24.73;18.37;;;;;11.10;102512.00;;;;10405630;28;20212;-77
2021/11/19 22:22:47;;;;;;;27.20;20.00;;;;;11.10;102511.00;;;;10428986;28;20208;-77
2021/11/19 22:27:49;;;;;;;24.60;19.13;;;;;11.10;102516.00;;;;10438955;28;20198;-78
2021/11/19 22:32:51;;;;;;;28.37;20.53;;;;;11.10;102518.00;;;;10436620;28;20225;-77
2021/11/19 22:37:56;;;;;;;30.20;21.43;;;;;11.10;102497.00;;;;10409568;28;20608;-77
2021/11/19 22:42:59;;;;;;;30.83;21.30;;;;;11.10;102497.00;;;;10426563;28;20339;-78
2021/11/19 22:48:05;;;;;;;33.20;21.53;;;;;11.10;102499.00;;;;10453473;28;20707;-77
2021/11/19 22:53:07;;;;;;;27.70;20.47;;;;;11.10;102490.00;;;;10415622;28;20194;-77
2021/11/19 22:58:11;;;;;;;30.10;20.77;;;;;11.00;102484.00;;;;10421523;28;20201;-77
2021/11/19 23:03:15;;;;;;;30.00;21.43;;;;;11.00;102492.00;;;;10426149;28;20215;-77
2021/11/19 23:08:18;;;;;;;30.97;22.10;;;;;11.00;102492.00;;;;10437935;28;20202;-77
2021/11/19 23:13:24;;;;;;;30.97;22.10;;;;;11.00;102479.00;;;;10410994;28;20240;-78
2021/11/19 23:18:30;;;;;;;31.90;22.20;;;;;11.00;102467.00;;;;10453909;28;20190;-78
2021/11/19 23:23:33;;;;;;;35.03;23.33;;;;;11.00;102468.00;;;;10422969;28;20205;-77
2021/11/19 23:28:55;;;;;;;36.67;25.17;;;;;11.00;102462.00;;;;10423582;28;20190;-77
2021/11/19 23:34:07;;;;;;;39.13;26.17;;;;;11.00;102465.00;;;;10429866;28;20213;-78
2021/11/19 23:39:12;;;;;;;41.50;26.10;;;;;11.00;102462.00;;;;10481614;28;20248;-78
2021/11/19 23:44:14;;;;;;;42.10;25.77;;;;;11.00;102453.00;;;;10502161;28;21139;-78
2021/11/19 23:49:16;;;;;;;38.13;25.60;;;;;10.90;102454.00;;;;10487164;28;20200;-77
2021/11/19 23:54:23;;;;;;;38.83;26.83;;;;;10.90;102449.00;;;;10497036;28;20188;-77
2021/11/19 23:59:27;;;;;;;42.43;27.87;;;;;10.90;102441.00;;;;10472787;28;21802;-77
